sensor_id;sensor_type;location;lat;lon;timestamp;pressure;altitude;pressure_sealevel;temperature;humidity
45403;BME280;47427;51.976;5.326;2023-04-25T00:00:59;101036.97;;;4.27;100.00
45403;BME280;47427;51.976;5.326;2023-04-25T00:04:20;101038.34;;;4.21;100.00
45403;BME280;47427;51.976;5.326;2023-04-25T00:07:44;101041.56;;;4.17;100.00
45403;BME280;47427;51.976;5.326;2023-04-25T00:11:06;101035.06;;;4.08;100.00
45403;BME280;47427;51.976;5.326;2023-04-25T00:14:29;101045.47;;;4.08;100.00
45403;BME280;47427;51.976;5.326;2023-04-25T00:17:51;101041.88;;;4.06;100.00
45403;BME280;47427;51.976;5.326;2023-04-25T00:21:15;101049.56;;;4.05;100.00
45403;BME280;47427;51.976;5.326;2023-04-25T00:24:38;101051.13;;;4.01;100.00
45403;BME280;47427;51.976;5.326;2023-04-25T00:28:00;101064.19;;;4.03;100.00
45403;BME280;47427;51.976;5.326;2023-04-25T00:31:22;101070.34;;;4.05;100.00
45403;BME280;47427;51.976;5.326;2023-04-25T00:34:44;101078.13;;;4.05;100.00
45403;BME280;47427;51.976;5.326;2023-04-25T00:38:06;101072.16;;;4.06;100.00
45403;BME280;47427;51.976;5.326;2023-04-25T00:41:28;101075.00;;;4.10;100.00
45403;BME280;47427;51.976;5.326;2023-04-25T00:44:53;101070.72;;;4.27;100.00
45403;BME280;47427;51.976;5.326;2023-04-25T00:48:15;101062.31;;;4.31;100.00
45403;BME280;47427;51.976;5.326;2023-04-25T00:51:38;101064.66;;;4.27;100.00
45403;BME280;47427;51.976;5.326;2023-04-25T00:55:01;101062.44;;;4.18;100.00
45403;BME280;47427;51.976;5.326;2023-04-25T00:58:24;101069.09;;;4.13;100.00
45403;BME280;47427;51.976;5.326;2023-04-25T01:01:46;101066.06;;;4.05;100.00
45403;BME280;47427;51.976;5.326;2023-04-25T01:05:09;101065.72;;;3.99;100.00
45403;BME280;47427;51.976;5.326;2023-04-25T01:08:31;101068.75;;;3.92;100.00
45403;BME280;47427;51.976;5.326;2023-04-25T01:11:54;101067.44;;;3.84;100.00
45403;BME280;47427;51.976;5.326;2023-04-25T01:15:17;101074.91;;;3.78;100.00
45403;BME280;47427;51.976;5.326;2023-04-25T01:18:39;101066.56;;;3.68;100.00
45403;BME280;47427;51.976;5.326;2023-04-25T01:22:03;101068.63;;;3.59;100.00
45403;BME280;47427;51.976;5.326;2023-04-25T01:25:26;101066.41;;;3.51;100.00
45403;BME280;47427;51.976;5.326;2023-04-25T01:28:48;101068.72;;;3.46;100.00
45403;BME280;47427;51.976;5.326;2023-04-25T01:32:11;101078.13;;;3.44;100.00
45403;BME280;47427;51.976;5.326;2023-04-25T01:35:34;101081.44;;;3.41;100.00
45403;BME280;47427;51.976;5.326;2023-04-25T01:38:57;101084.84;;;3.40;100.00
45403;BME280;47427;51.976;5.326;2023-04-25T01:42:19;101091.91;;;3.43;100.00
45403;BME280;47427;51.976;5.326;2023-04-25T01:45:41;101097.19;;;3.44;100.00
45403;BME280;47427;51.976;5.326;2023-04-25T01:49:06;101098.88;;;3.44;100.00
45403;BME280;47427;51.976;5.326;2023-04-25T01:52:29;101099.59;;;3.41;100.00
45403;BME280;47427;51.976;5.326;2023-04-25T01:55:52;101108.34;;;3.43;100.00
45403;BME280;47427;51.976;5.326;2023-04-25T01:59:18;101098.88;;;3.44;100.00
45403;BME280;47427;51.976;5.326;2023-04-25T02:02:53;101111.59;;;3.39;100.00
45403;BME280;47427;51.976;5.326;2023-04-25T02:06:23;101114.69;;;3.34;100.00
45403;BME280;47427;51.976;5.326;2023-04-25T02:09:48;101115.94;;;3.25;100.00
45403;BME280;47427;51.976;5.326;2023-04-25T02:13:12;101123.91;;;3.29;100.00
45403;BME280;47427;51.976;5.326;2023-04-25T02:17:14;101112.47;;;3.25;100.00
45403;BME280;47427;51.976;5.326;2023-04-25T02:20:37;101117.66;;;3.25;100.00
45403;BME280;47427;51.976;5.326;2023-04-25T02:23:58;101114.22;;;3.26;100.00
45403;BME280;47427;51.976;5.326;2023-04-25T02:27:23;101134.28;;;3.29;100.00
45403;BME280;47427;51.976;5.326;2023-04-25T02:30:46;101126.50;;;3.29;100.00
45403;BME280;47427;51.976;5.326;2023-04-25T02:34:07;101125.69;;;3.30;100.00
45403;BME280;47427;51.976;5.326;2023-04-25T02:37:35;101128.38;;;3.31;100.00
45403;BME280;47427;51.976;5.326;2023-04-25T02:40:57;101127.31;;;3.42;100.00
45403;BME280;47427;51.976;5.326;2023-04-25T02:44:38;101118.28;;;3.51;100.00
45403;BME280;47427;51.976;5.326;2023-04-25T02:48:01;101123.81;;;3.57;100.00
45403;BME280;47427;51.976;5.326;2023-04-25T02:51:23;101117.84;;;3.58;100.00
45403;BME280;47427;51.976;5.326;2023-04-25T02:54:45;101130.63;;;3.69;100.00
45403;BME280;47427;51.976;5.326;2023-04-25T02:58:07;101116.22;;;3.75;100.00
45403;BME280;47427;51.976;5.326;2023-04-25T03:01:44;101116.22;;;3.75;100.00
45403;BME280;47427;51.976;5.326;2023-04-25T03:05:26;101113.72;;;3.76;100.00
45403;BME280;47427;51.976;5.326;2023-04-25T03:08:49;101112.00;;;3.77;100.00
45403;BME280;47427;51.976;5.326;2023-04-25T03:12:12;101122.94;;;3.71;100.00
45403;BME280;47427;51.976;5.326;2023-04-25T03:15:34;101129.38;;;3.63;100.00
45403;BME280;47427;51.976;5.326;2023-04-25T03:18:57;101138.06;;;3.78;100.00
45403;BME280;47427;51.976;5.326;2023-04-25T03:22:22;101137.19;;;3.93;100.00
45403;BME280;47427;51.976;5.326;2023-04-25T03:25:43;101138.13;;;4.09;100.00
45403;BME280;47427;51.976;5.326;2023-04-25T03:29:06;101131.47;;;4.15;100.00
45403;BME280;47427;51.976;5.326;2023-04-25T03:32:29;101124.06;;;4.21;100.00
45403;BME280;47427;51.976;5.326;2023-04-25T03:35:52;101121.94;;;4.30;100.00
45403;BME280;47427;51.976;5.326;2023-04-25T03:39:15;101130.44;;;4.42;100.00
45403;BME280;47427;51.976;5.326;2023-04-25T03:42:42;101131.72;;;4.50;100.00
45403;BME280;47427;51.976;5.326;2023-04-25T03:46:05;101136.31;;;4.54;100.00
45403;BME280;47427;51.976;5.326;2023-04-25T03:49:28;101158.13;;;4.42;100.00
45403;BME280;47427;51.976;5.326;2023-04-25T03:52:53;101149.53;;;4.28;100.00
45403;BME280;47427;51.976;5.326;2023-04-25T03:56:15;101145.88;;;4.24;100.00
45403;BME280;47427;51.976;5.326;2023-04-25T03:59:40;101149.72;;;4.31;100.00
45403;BME280;47427;51.976;5.326;2023-04-25T04:03:04;101138.78;;;4.37;100.00
45403;BME280;47427;51.976;5.326;2023-04-25T04:06:27;101146.00;;;4.42;100.00
45403;BME280;47427;51.976;5.326;2023-04-25T04:09:57;101149.75;;;4.47;100.00
45403;BME280;47427;51.976;5.326;2023-04-25T04:13:26;101138.75;;;4.51;100.00
45403;BME280;47427;51.976;5.326;2023-04-25T04:16:51;101150.75;;;4.66;100.00
45403;BME280;47427;51.976;5.326;2023-04-25T04:20:13;101161.03;;;4.79;100.00
45403;BME280;47427;51.976;5.326;2023-04-25T04:23:36;101167.38;;;4.84;100.00
45403;BME280;47427;51.976;5.326;2023-04-25T04:27:00;101161.63;;;4.90;100.00
45403;BME280;47427;51.976;5.326;2023-04-25T04:30:47;101175.19;;;5.00;100.00
45403;BME280;47427;51.976;5.326;2023-04-25T04:34:09;101176.41;;;5.07;100.00
45403;BME280;47427;51.976;5.326;2023-04-25T04:37:31;101183.13;;;5.04;100.00
45403;BME280;47427;51.976;5.326;2023-04-25T04:40:54;101190.78;;;5.00;100.00
45403;BME280;47427;51.976;5.326;2023-04-25T04:44:25;101183.88;;;5.01;100.00
45403;BME280;47427;51.976;5.326;2023-04-25T04:48:07;101188.91;;;4.98;100.00
45403;BME280;47427;51.976;5.326;2023-04-25T04:51:29;101196.53;;;4.78;100.00
45403;BME280;47427;51.976;5.326;2023-04-25T04:55:04;101198.75;;;4.56;100.00
45403;BME280;47427;51.976;5.326;2023-04-25T04:58:46;101199.06;;;4.46;100.00
45403;BME280;47427;51.976;5.326;2023-04-25T05:02:31;101217.38;;;4.64;100.00
45403;BME280;47427;51.976;5.326;2023-04-25T05:06:05;101202.53;;;4.77;100.00
45403;BME280;47427;51.976;5.326;2023-04-25T05:09:46;101209.59;;;4.80;100.00
45403;BME280;47427;51.976;5.326;2023-04-25T05:13:27;101209.88;;;4.85;100.00
45403;BME280;47427;51.976;5.326;2023-04-25T05:17:04;101217.44;;;4.96;100.00
45403;BME280;47427;51.976;5.326;2023-04-25T05:20:41;101223.13;;;5.06;100.00
45403;BME280;47427;51.976;5.326;2023-04-25T05:24:29;101225.69;;;5.20;100.00
45403;BME280;47427;51.976;5.326;2023-04-25T05:28:03;101232.69;;;5.38;100.00
45403;BME280;47427;51.976;5.326;2023-04-25T05:31:55;101243.75;;;5.50;100.00
45403;BME280;47427;51.976;5.326;2023-04-25T05:35:19;101244.06;;;5.73;100.00
45403;BME280;47427;51.976;5.326;2023-04-25T05:38:45;101243.38;;;5.93;100.00
45403;BME280;47427;51.976;5.326;2023-04-25T05:42:27;101249.38;;;6.08;100.00
45403;BME280;47427;51.976;5.326;2023-04-25T05:46:10;101250.28;;;6.09;100.00
45403;BME280;47427;51.976;5.326;2023-04-25T05:49:40;101244.94;;;6.24;100.00
45403;BME280;47427;51.976;5.326;2023-04-25T05:53:22;101257.72;;;6.54;100.00
45403;BME280;47427;51.976;5.326;2023-04-25T05:56:49;101253.66;;;6.78;100.00
45403;BME280;47427;51.976;5.326;2023-04-25T06:00:13;101259.56;;;6.92;100.00
45403;BME280;47427;51.976;5.326;2023-04-25T06:03:40;101255.50;;;7.16;100.00
45403;BME280;47427;51.976;5.326;2023-04-25T06:07:05;101270.13;;;7.32;100.00
45403;BME280;47427;51.976;5.326;2023-04-25T06:10:28;101269.38;;;7.54;100.00
45403;BME280;47427;51.976;5.326;2023-04-25T06:13:51;101264.44;;;7.80;100.00
45403;BME280;47427;51.976;5.326;2023-04-25T06:17:12;101287.03;;;7.99;100.00
45403;BME280;47427;51.976;5.326;2023-04-25T06:20:35;101284.13;;;8.12;100.00
45403;BME280;47427;51.976;5.326;2023-04-25T06:23:57;101287.66;;;8.13;100.00
45403;BME280;47427;51.976;5.326;2023-04-25T06:27:19;101286.69;;;8.32;100.00
45403;BME280;47427;51.976;5.326;2023-04-25T06:30:41;101283.63;;;8.21;100.00
45403;BME280;47427;51.976;5.326;2023-04-25T06:34:08;101289.88;;;8.24;100.00
45403;BME280;47427;51.976;5.326;2023-04-25T06:37:33;101290.72;;;8.23;100.00
45403;BME280;47427;51.976;5.326;2023-04-25T06:40:57;101293.00;;;8.37;100.00
45403;BME280;47427;51.976;5.326;2023-04-25T06:44:18;101289.66;;;8.39;100.00
45403;BME280;47427;51.976;5.326;2023-04-25T06:47:47;101301.50;;;8.73;100.00
45403;BME280;47427;51.976;5.326;2023-04-25T06:51:09;101302.75;;;9.04;100.00
45403;BME280;47427;51.976;5.326;2023-04-25T06:54:34;101318.53;;;9.50;100.00
45403;BME280;47427;51.976;5.326;2023-04-25T06:58:03;101309.66;;;10.69;100.00
45403;BME280;47427;51.976;5.326;2023-04-25T07:01:44;101325.69;;;12.23;92.31
45403;BME280;47427;51.976;5.326;2023-04-25T07:05:11;101316.16;;;13.75;83.75
45403;BME280;47427;51.976;5.326;2023-04-25T07:08:32;101320.63;;;15.25;76.10
45403;BME280;47427;51.976;5.326;2023-04-25T07:11:54;101321.72;;;14.81;76.22
45403;BME280;47427;51.976;5.326;2023-04-25T07:15:17;101318.16;;;14.81;74.28
45403;BME280;47427;51.976;5.326;2023-04-25T07:18:43;101326.44;;;16.36;68.56
45403;BME280;47427;51.976;5.326;2023-04-25T07:22:06;101325.69;;;16.51;57.73
45403;BME280;47427;51.976;5.326;2023-04-25T07:25:30;101328.53;;;18.24;52.15
45403;BME280;47427;51.976;5.326;2023-04-25T07:28:53;101327.72;;;19.22;49.85
45403;BME280;47427;51.976;5.326;2023-04-25T07:32:17;101322.03;;;20.20;46.39
45403;BME280;47427;51.976;5.326;2023-04-25T07:35:38;101326.16;;;20.72;43.43
45403;BME280;47427;51.976;5.326;2023-04-25T07:39:01;101323.06;;;19.95;45.36
45403;BME280;47427;51.976;5.326;2023-04-25T07:42:24;101329.72;;;20.72;44.25
45403;BME280;47427;51.976;5.326;2023-04-25T07:45:48;101333.72;;;21.23;43.65
45403;BME280;47427;51.976;5.326;2023-04-25T07:49:13;101341.81;;;18.24;46.06
45403;BME280;47427;51.976;5.326;2023-04-25T07:52:38;101343.72;;;16.05;49.42
45403;BME280;47427;51.976;5.326;2023-04-25T07:56:11;101345.41;;;14.77;51.50
45403;BME280;47427;51.976;5.326;2023-04-25T07:59:37;101353.50;;;13.93;53.37
45403;BME280;47427;51.976;5.326;2023-04-25T08:03:00;101358.50;;;13.05;55.78
45403;BME280;47427;51.976;5.326;2023-04-25T08:06:23;101371.69;;;12.37;59.14
45403;BME280;47427;51.976;5.326;2023-04-25T08:10:08;101390.09;;;11.48;64.04
45403;BME280;47427;51.976;5.326;2023-04-25T08:13:29;101392.50;;;11.42;67.07
45403;BME280;47427;51.976;5.326;2023-04-25T08:16:53;101392.78;;;11.49;66.74
45403;BME280;47427;51.976;5.326;2023-04-25T08:20:15;101402.25;;;11.73;65.61
45403;BME280;47427;51.976;5.326;2023-04-25T08:23:39;101391.72;;;12.65;63.58
45403;BME280;47427;51.976;5.326;2023-04-25T08:27:09;101403.94;;;13.68;60.32
45403;BME280;47427;51.976;5.326;2023-04-25T08:30:31;101403.72;;;16.03;56.17
45403;BME280;47427;51.976;5.326;2023-04-25T08:33:52;101403.03;;;19.59;47.55
45403;BME280;47427;51.976;5.326;2023-04-25T08:37:23;101400.72;;;23.63;38.77
45403;BME280;47427;51.976;5.326;2023-04-25T08:40:51;101402.56;;;25.91;32.88
45403;BME280;47427;51.976;5.326;2023-04-25T08:44:13;101409.91;;;26.73;30.44
45403;BME280;47427;51.976;5.326;2023-04-25T08:47:38;101407.38;;;27.50;27.82
45403;BME280;47427;51.976;5.326;2023-04-25T08:51:02;101399.03;;;28.76;26.50
45403;BME280;47427;51.976;5.326;2023-04-25T08:54:28;101406.13;;;28.78;25.31
45403;BME280;47427;51.976;5.326;2023-04-25T08:57:51;101410.31;;;26.89;25.97
45403;BME280;47427;51.976;5.326;2023-04-25T09:01:13;101419.53;;;24.06;28.87
45403;BME280;47427;51.976;5.326;2023-04-25T09:04:55;101431.22;;;20.37;34.42
45403;BME280;47427;51.976;5.326;2023-04-25T09:08:17;101437.38;;;18.09;38.04
45403;BME280;47427;51.976;5.326;2023-04-25T09:11:40;101443.16;;;16.55;41.73
45403;BME280;47427;51.976;5.326;2023-04-25T09:15:09;101456.16;;;15.16;42.52
45403;BME280;47427;51.976;5.326;2023-04-25T09:18:54;101467.59;;;15.15;44.94
45403;BME280;47427;51.976;5.326;2023-04-25T09:22:17;101459.81;;;19.90;37.74
45403;BME280;47427;51.976;5.326;2023-04-25T09:25:43;101458.22;;;23.42;33.23
45403;BME280;47427;51.976;5.326;2023-04-25T09:29:08;101460.38;;;27.50;28.20
45403;BME280;47427;51.976;5.326;2023-04-25T09:32:35;101456.94;;;29.77;24.42
45403;BME280;47427;51.976;5.326;2023-04-25T09:36:08;101466.97;;;30.92;23.99
45403;BME280;47427;51.976;5.326;2023-04-25T09:40:03;101463.44;;;31.97;20.48
45403;BME280;47427;51.976;5.326;2023-04-25T09:43:29;101464.09;;;32.99;19.41
45403;BME280;47427;51.976;5.326;2023-04-25T09:46:51;101462.00;;;33.50;17.71
45403;BME280;47427;51.976;5.326;2023-04-25T09:50:19;101461.94;;;33.96;17.75
45403;BME280;47427;51.976;5.326;2023-04-25T09:53:47;101462.91;;;34.38;16.43
45403;BME280;47427;51.976;5.326;2023-04-25T09:57:24;101460.50;;;34.19;15.70
45403;BME280;47427;51.976;5.326;2023-04-25T10:00:47;101461.13;;;34.80;15.66
45403;BME280;47427;51.976;5.326;2023-04-25T10:04:25;101459.25;;;34.95;16.19
45403;BME280;47427;51.976;5.326;2023-04-25T10:07:55;101463.09;;;30.40;18.81
45403;BME280;47427;51.976;5.326;2023-04-25T10:11:17;101477.34;;;26.39;22.47
45403;BME280;47427;51.976;5.326;2023-04-25T10:14:40;101476.44;;;21.79;27.30
45403;BME280;47427;51.976;5.326;2023-04-25T10:18:02;101480.19;;;18.90;31.39
45403;BME280;47427;51.976;5.326;2023-04-25T10:21:55;101481.91;;;17.26;35.00
45403;BME280;47427;51.976;5.326;2023-04-25T10:25:18;101485.59;;;16.59;37.86
45403;BME280;47427;51.976;5.326;2023-04-25T10:29:02;101485.88;;;15.54;39.39
45403;BME280;47427;51.976;5.326;2023-04-25T10:32:25;101499.94;;;15.50;40.31
45403;BME280;47427;51.976;5.326;2023-04-25T10:35:47;101492.97;;;15.55;41.51
45403;BME280;47427;51.976;5.326;2023-04-25T10:39:08;101496.44;;;15.54;41.75
45403;BME280;47427;51.976;5.326;2023-04-25T10:42:31;101504.94;;;14.85;42.49
45403;BME280;47427;51.976;5.326;2023-04-25T10:45:53;101511.56;;;14.64;42.56
45403;BME280;47427;51.976;5.326;2023-04-25T10:49:41;101516.00;;;14.65;42.83
45403;BME280;47427;51.976;5.326;2023-04-25T10:53:14;101517.09;;;15.24;43.11
45403;BME280;47427;51.976;5.326;2023-04-25T10:56:40;101527.31;;;16.10;39.85
45403;BME280;47427;51.976;5.326;2023-04-25T11:00:16;101521.63;;;16.43;40.24
45403;BME280;47427;51.976;5.326;2023-04-25T11:03:43;101518.06;;;17.18;38.76
45403;BME280;47427;51.976;5.326;2023-04-25T11:07:17;101508.69;;;17.60;38.13
45403;BME280;47427;51.976;5.326;2023-04-25T11:10:45;101510.38;;;19.12;35.70
45403;BME280;47427;51.976;5.326;2023-04-25T11:14:09;101514.72;;;20.34;32.61
45403;BME280;47427;51.976;5.326;2023-04-25T11:17:32;101501.19;;;22.73;30.56
45403;BME280;47427;51.976;5.326;2023-04-25T11:20:57;101509.19;;;24.80;27.89
45403;BME280;47427;51.976;5.326;2023-04-25T11:24:19;101505.00;;;29.28;23.17
45403;BME280;47427;51.976;5.326;2023-04-25T11:27:59;101507.25;;;31.18;20.30
45403;BME280;47427;51.976;5.326;2023-04-25T11:31:25;101515.94;;;33.12;18.88
45403;BME280;47427;51.976;5.326;2023-04-25T11:34:47;101514.84;;;33.46;17.35
45403;BME280;47427;51.976;5.326;2023-04-25T11:38:09;101514.97;;;26.09;22.80
45403;BME280;47427;51.976;5.326;2023-04-25T11:41:32;101515.81;;;21.57;28.08
45403;BME280;47427;51.976;5.326;2023-04-25T11:44:55;101527.13;;;20.49;30.06
45403;BME280;47427;51.976;5.326;2023-04-25T11:48:18;101526.91;;;18.28;33.55
45403;BME280;47427;51.976;5.326;2023-04-25T11:51:43;101528.03;;;18.89;32.39
45403;BME280;47427;51.976;5.326;2023-04-25T11:55:24;101534.09;;;18.49;33.50
45403;BME280;47427;51.976;5.326;2023-04-25T11:59:02;101530.13;;;26.12;25.77
45403;BME280;47427;51.976;5.326;2023-04-25T12:02:25;101542.19;;;30.86;20.35
45403;BME280;47427;51.976;5.326;2023-04-25T12:05:47;101546.50;;;26.35;22.04
45403;BME280;47427;51.976;5.326;2023-04-25T12:09:11;101541.44;;;26.57;22.61
45403;BME280;47427;51.976;5.326;2023-04-25T12:12:36;101548.84;;;24.67;24.01
45403;BME280;47427;51.976;5.326;2023-04-25T12:15:57;101548.41;;;21.97;25.95
45403;BME280;47427;51.976;5.326;2023-04-25T12:19:20;101547.56;;;23.93;25.96
45403;BME280;47427;51.976;5.326;2023-04-25T12:22:48;101553.28;;;23.14;26.34
45403;BME280;47427;51.976;5.326;2023-04-25T12:26:11;101554.78;;;20.02;31.39
45403;BME280;47427;51.976;5.326;2023-04-25T12:29:34;101558.28;;;17.67;34.42
45403;BME280;47427;51.976;5.326;2023-04-25T12:32:56;101569.41;;;17.26;35.80
45403;BME280;47427;51.976;5.326;2023-04-25T12:36:18;101582.75;;;15.99;36.71
45403;BME280;47427;51.976;5.326;2023-04-25T12:39:40;101580.63;;;15.28;38.79
45403;BME280;47427;51.976;5.326;2023-04-25T12:43:02;101588.94;;;14.59;39.26
45403;BME280;47427;51.976;5.326;2023-04-25T12:46:25;101582.81;;;14.61;39.53
45403;BME280;47427;51.976;5.326;2023-04-25T12:50:08;101599.13;;;14.43;38.88
45403;BME280;47427;51.976;5.326;2023-04-25T12:53:38;101591.16;;;14.42;37.40
45403;BME280;47427;51.976;5.326;2023-04-25T12:57:21;101599.41;;;14.54;37.28
45403;BME280;47427;51.976;5.326;2023-04-25T13:00:45;101593.75;;;16.88;34.87
45403;BME280;47427;51.976;5.326;2023-04-25T13:04:08;101587.53;;;20.60;30.29
45403;BME280;47427;51.976;5.326;2023-04-25T13:07:30;101581.38;;;24.50;25.00
45403;BME280;47427;51.976;5.326;2023-04-25T13:10:52;101572.63;;;27.79;22.86
45403;BME280;47427;51.976;5.326;2023-04-25T13:14:15;101575.00;;;28.15;21.27
45403;BME280;47427;51.976;5.326;2023-04-25T13:17:38;101570.72;;;28.59;22.29
45403;BME280;47427;51.976;5.326;2023-04-25T13:21:00;101576.22;;;29.03;20.75
45403;BME280;47427;51.976;5.326;2023-04-25T13:24:23;101572.59;;;27.80;22.10
45403;BME280;47427;51.976;5.326;2023-04-25T13:28:04;101568.19;;;27.23;22.40
45403;BME280;47427;51.976;5.326;2023-04-25T13:31:27;101572.34;;;22.10;26.64
45403;BME280;47427;51.976;5.326;2023-04-25T13:34:51;101571.50;;;18.95;30.99
45403;BME280;47427;51.976;5.326;2023-04-25T13:38:32;101581.03;;;18.53;32.47
45403;BME280;47427;51.976;5.326;2023-04-25T13:41:53;101583.78;;;18.73;32.09
45403;BME280;47427;51.976;5.326;2023-04-25T13:45:15;101579.59;;;22.79;27.25
45403;BME280;47427;51.976;5.326;2023-04-25T13:48:38;101578.66;;;24.95;24.17
45403;BME280;47427;51.976;5.326;2023-04-25T13:52:01;101576.59;;;22.32;26.07
45403;BME280;47427;51.976;5.326;2023-04-25T13:55:23;101592.25;;;25.29;22.32
45403;BME280;47427;51.976;5.326;2023-04-25T13:58:45;101585.59;;;26.82;21.46
45403;BME280;47427;51.976;5.326;2023-04-25T14:02:07;101589.84;;;27.48;21.48
45403;BME280;47427;51.976;5.326;2023-04-25T14:05:30;101579.72;;;27.83;19.95
45403;BME280;47427;51.976;5.326;2023-04-25T14:08:54;101573.47;;;27.81;20.12
45403;BME280;47427;51.976;5.326;2023-04-25T14:12:16;101582.53;;;24.80;22.05
45403;BME280;47427;51.976;5.326;2023-04-25T14:15:40;101578.97;;;25.59;22.09
45403;BME280;47427;51.976;5.326;2023-04-25T14:19:02;101585.00;;;24.91;22.97
45403;BME280;47427;51.976;5.326;2023-04-25T14:22:24;101578.97;;;25.22;23.18
45403;BME280;47427;51.976;5.326;2023-04-25T14:25:48;101587.09;;;23.81;22.95
45403;BME280;47427;51.976;5.326;2023-04-25T14:29:11;101581.25;;;22.08;24.70
45403;BME280;47427;51.976;5.326;2023-04-25T14:32:34;101590.06;;;18.78;27.85
45403;BME280;47427;51.976;5.326;2023-04-25T14:35:57;101601.78;;;19.46;28.52
45403;BME280;47427;51.976;5.326;2023-04-25T14:39:18;101591.25;;;23.41;26.69
45403;BME280;47427;51.976;5.326;2023-04-25T14:42:41;101585.00;;;24.91;25.87
45403;BME280;47427;51.976;5.326;2023-04-25T14:46:04;101593.47;;;22.36;27.14
45403;BME280;47427;51.976;5.326;2023-04-25T14:49:26;101597.84;;;18.48;32.38
45403;BME280;47427;51.976;5.326;2023-04-25T14:52:50;101607.50;;;16.62;35.78
45403;BME280;47427;51.976;5.326;2023-04-25T14:56:13;101610.66;;;15.77;38.04
45403;BME280;47427;51.976;5.326;2023-04-25T14:59:35;101613.69;;;15.06;39.15
45403;BME280;47427;51.976;5.326;2023-04-25T15:02:58;101615.78;;;14.41;39.91
45403;BME280;47427;51.976;5.326;2023-04-25T15:06:20;101622.63;;;17.41;36.82
45403;BME280;47427;51.976;5.326;2023-04-25T15:09:42;101613.97;;;22.35;29.17
45403;BME280;47427;51.976;5.326;2023-04-25T15:13:06;101614.56;;;24.46;26.73
45403;BME280;47427;51.976;5.326;2023-04-25T15:16:27;101624.28;;;23.43;27.95
45403;BME280;47427;51.976;5.326;2023-04-25T15:19:50;101619.81;;;24.01;25.74
45403;BME280;47427;51.976;5.326;2023-04-25T15:23:12;101614.25;;;20.29;29.04
45403;BME280;47427;51.976;5.326;2023-04-25T15:26:34;101620.34;;;19.23;30.93
45403;BME280;47427;51.976;5.326;2023-04-25T15:29:57;101625.44;;;21.31;27.38
45403;BME280;47427;51.976;5.326;2023-04-25T15:33:18;101621.16;;;23.12;25.43
45403;BME280;47427;51.976;5.326;2023-04-25T15:36:41;101629.31;;;20.33;28.15
45403;BME280;47427;51.976;5.326;2023-04-25T15:40:16;101624.84;;;22.18;26.52
45403;BME280;47427;51.976;5.326;2023-04-25T15:43:38;101627.47;;;23.68;25.53
45403;BME280;47427;51.976;5.326;2023-04-25T15:47:01;101628.97;;;22.52;26.31
45403;BME280;47427;51.976;5.326;2023-04-25T15:50:24;101649.63;;;21.05;27.94
45403;BME280;47427;51.976;5.326;2023-04-25T15:53:46;101648.88;;;20.15;29.47
45403;BME280;47427;51.976;5.326;2023-04-25T15:57:08;101651.22;;;21.36;28.07
45403;BME280;47427;51.976;5.326;2023-04-25T16:00:34;101646.00;;;21.19;28.06
45403;BME280;47427;51.976;5.326;2023-04-25T16:03:57;101654.09;;;19.24;30.05
45403;BME280;47427;51.976;5.326;2023-04-25T16:07:19;101657.31;;;16.27;34.11
45403;BME280;47427;51.976;5.326;2023-04-25T16:10:42;101663.13;;;14.71;36.70
45403;BME280;47427;51.976;5.326;2023-04-25T16:14:03;101661.56;;;13.70;38.34
45403;BME280;47427;51.976;5.326;2023-04-25T16:17:26;101660.72;;;13.09;40.19
45403;BME280;47427;51.976;5.326;2023-04-25T16:20:52;101656.13;;;12.73;41.39
45403;BME280;47427;51.976;5.326;2023-04-25T16:24:13;101667.50;;;12.44;42.32
45403;BME280;47427;51.976;5.326;2023-04-25T16:27:36;101668.41;;;13.01;42.85
45403;BME280;47427;51.976;5.326;2023-04-25T16:30:59;101674.53;;;13.97;41.91
45403;BME280;47427;51.976;5.326;2023-04-25T16:34:22;101679.00;;;15.56;39.96
45403;BME280;47427;51.976;5.326;2023-04-25T16:37:45;101684.47;;;16.15;39.00
45403;BME280;47427;51.976;5.326;2023-04-25T16:41:06;101690.59;;;17.31;37.08
45403;BME280;47427;51.976;5.326;2023-04-25T16:44:28;101685.41;;;16.74;37.08
45403;BME280;47427;51.976;5.326;2023-04-25T16:47:50;101677.03;;;15.02;39.86
45403;BME280;47427;51.976;5.326;2023-04-25T16:51:12;101684.78;;;14.20;41.47
45403;BME280;47427;51.976;5.326;2023-04-25T16:54:35;101686.75;;;13.29;42.57
45403;BME280;47427;51.976;5.326;2023-04-25T16:57:58;101679.31;;;12.56;44.06
45403;BME280;47427;51.976;5.326;2023-04-25T17:01:20;101691.19;;;12.17;43.72
45403;BME280;47427;51.976;5.326;2023-04-25T17:04:42;101686.56;;;12.09;44.03
45403;BME280;47427;51.976;5.326;2023-04-25T17:08:04;101688.94;;;12.02;45.06
45403;BME280;47427;51.976;5.326;2023-04-25T17:11:47;101689.75;;;11.75;45.43
45403;BME280;47427;51.976;5.326;2023-04-25T17:15:10;101688.16;;;11.55;46.46
45403;BME280;47427;51.976;5.326;2023-04-25T17:18:31;101692.72;;;11.36;46.96
45403;BME280;47427;51.976;5.326;2023-04-25T17:21:54;101701.63;;;11.16;48.22
45403;BME280;47427;51.976;5.326;2023-04-25T17:25:16;101701.28;;;11.06;47.91
45403;BME280;47427;51.976;5.326;2023-04-25T17:28:38;101711.91;;;10.87;48.28
45403;BME280;47427;51.976;5.326;2023-04-25T17:32:03;101716.13;;;10.83;48.58
45403;BME280;47427;51.976;5.326;2023-04-25T17:35:25;101710.75;;;11.03;49.29
45403;BME280;47427;51.976;5.326;2023-04-25T17:38:48;101712.38;;;11.22;49.14
45403;BME280;47427;51.976;5.326;2023-04-25T17:42:11;101716.28;;;11.33;48.70
45403;BME280;47427;51.976;5.326;2023-04-25T17:45:33;101713.84;;;11.15;48.51
45403;BME280;47427;51.976;5.326;2023-04-25T17:48:57;101719.81;;;11.58;48.66
45403;BME280;47427;51.976;5.326;2023-04-25T17:52:19;101722.34;;;11.55;48.67
45403;BME280;47427;51.976;5.326;2023-04-25T17:55:43;101721.38;;;11.53;49.08